sensor_id;sensor_type;location;lat;lon;timestamp;temperature;humidity
11615;DHT22;5863;52.832;4.758;2023-03-12T00:00:37;2.90;99.90
11615;DHT22;5863;52.832;4.758;2023-03-12T00:03:04;2.90;99.90
11615;DHT22;5863;52.832;4.758;2023-03-12T00:05:31;2.90;99.90
11615;DHT22;5863;52.832;4.758;2023-03-12T00:07:57;2.90;99.90
11615;DHT22;5863;52.832;4.758;2023-03-12T00:10:26;2.90;99.90
11615;DHT22;5863;52.832;4.758;2023-03-12T00:12:52;2.90;99.90
11615;DHT22;5863;52.832;4.758;2023-03-12T00:15:19;2.90;99.90
11615;DHT22;5863;52.832;4.758;2023-03-12T00:17:46;3.00;99.90
11615;DHT22;5863;52.832;4.758;2023-03-12T00:20:13;2.90;99.90
11615;DHT22;5863;52.832;4.758;2023-03-12T00:22:40;2.90;99.90
11615;DHT22;5863;52.832;4.758;2023-03-12T00:25:11;2.90;99.90
11615;DHT22;5863;52.832;4.758;2023-03-12T00:27:39;3.00;99.90
11615;DHT22;5863;52.832;4.758;2023-03-12T00:30:07;3.00;99.90
11615;DHT22;5863;52.832;4.758;2023-03-12T00:32:35;3.00;99.90
11615;DHT22;5863;52.832;4.758;2023-03-12T00:35:03;3.00;99.90
11615;DHT22;5863;52.832;4.758;2023-03-12T00:37:31;3.00;99.90
11615;DHT22;5863;52.832;4.758;2023-03-12T00:39:58;3.10;99.90
11615;DHT22;5863;52.832;4.758;2023-03-12T00:42:26;3.00;99.90
11615;DHT22;5863;52.832;4.758;2023-03-12T00:44:54;3.10;99.90
11615;DHT22;5863;52.832;4.758;2023-03-12T00:47:25;3.00;99.90
11615;DHT22;5863;52.832;4.758;2023-03-12T00:49:52;3.10;99.90
11615;DHT22;5863;52.832;4.758;2023-03-12T00:52:18;3.20;99.90
11615;DHT22;5863;52.832;4.758;2023-03-12T00:54:45;3.10;99.90
11615;DHT22;5863;52.832;4.758;2023-03-12T00:57:12;3.20;99.90
11615;DHT22;5863;52.832;4.758;2023-03-12T00:59:38;3.20;99.90
11615;DHT22;5863;52.832;4.758;2023-03-12T01:02:08;3.10;99.90
11615;DHT22;5863;52.832;4.758;2023-03-12T01:04:34;3.20;99.90
11615;DHT22;5863;52.832;4.758;2023-03-12T01:07:01;3.10;99.90
11615;DHT22;5863;52.832;4.758;2023-03-12T01:09:28;3.10;99.90
11615;DHT22;5863;52.832;4.758;2023-03-12T01:11:55;3.20;99.90
11615;DHT22;5863;52.832;4.758;2023-03-12T01:14:21;3.20;99.90
11615;DHT22;5863;52.832;4.758;2023-03-12T01:16:48;3.30;99.90
11615;DHT22;5863;52.832;4.758;2023-03-12T01:19:17;3.30;99.90
11615;DHT22;5863;52.832;4.758;2023-03-12T01:21:43;3.30;99.90
11615;DHT22;5863;52.832;4.758;2023-03-12T01:24:10;3.30;99.90
11615;DHT22;5863;52.832;4.758;2023-03-12T01:26:37;3.20;99.90
11615;DHT22;5863;52.832;4.758;2023-03-12T01:29:03;3.20;99.90
11615;DHT22;5863;52.832;4.758;2023-03-12T01:31:30;3.20;99.90
11615;DHT22;5863;52.832;4.758;2023-03-12T01:33:59;3.20;99.90
11615;DHT22;5863;52.832;4.758;2023-03-12T01:36:28;3.20;99.90
11615;DHT22;5863;52.832;4.758;2023-03-12T01:38:57;3.30;99.90
11615;DHT22;5863;52.832;4.758;2023-03-12T01:41:26;3.30;99.90
11615;DHT22;5863;52.832;4.758;2023-03-12T01:43:54;3.30;99.90
11615;DHT22;5863;52.832;4.758;2023-03-12T01:46:29;3.30;99.90
11615;DHT22;5863;52.832;4.758;2023-03-12T01:49:00;3.30;99.90
11615;DHT22;5863;52.832;4.758;2023-03-12T01:51:32;3.30;99.90
11615;DHT22;5863;52.832;4.758;2023-03-12T01:54:02;3.30;99.90
11615;DHT22;5863;52.832;4.758;2023-03-12T01:56:32;3.30;99.90
11615;DHT22;5863;52.832;4.758;2023-03-12T01:59:04;3.30;99.90
11615;DHT22;5863;52.832;4.758;2023-03-12T02:01:32;3.40;99.90
11615;DHT22;5863;52.832;4.758;2023-03-12T02:04:00;3.30;99.90
11615;DHT22;5863;52.832;4.758;2023-03-12T02:06:33;3.30;99.90
11615;DHT22;5863;52.832;4.758;2023-03-12T02:09:05;3.30;99.90
11615;DHT22;5863;52.832;4.758;2023-03-12T02:11:32;3.30;99.90
11615;DHT22;5863;52.832;4.758;2023-03-12T02:13:59;3.30;99.90
11615;DHT22;5863;52.832;4.758;2023-03-12T02:16:26;3.40;99.90
11615;DHT22;5863;52.832;4.758;2023-03-12T02:18:53;3.40;99.90
11615;DHT22;5863;52.832;4.758;2023-03-12T02:21:22;3.40;99.90
11615;DHT22;5863;52.832;4.758;2023-03-12T02:23:56;3.40;99.90
11615;DHT22;5863;52.832;4.758;2023-03-12T02:26:28;3.40;99.90
11615;DHT22;5863;52.832;4.758;2023-03-12T02:28:55;3.40;99.90
11615;DHT22;5863;52.832;4.758;2023-03-12T02:31:28;3.50;99.90
11615;DHT22;5863;52.832;4.758;2023-03-12T02:33:56;3.50;99.90
11615;DHT22;5863;52.832;4.758;2023-03-12T02:36:25;3.50;99.90
11615;DHT22;5863;52.832;4.758;2023-03-12T02:38:52;3.50;99.90
11615;DHT22;5863;52.832;4.758;2023-03-12T02:41:22;3.50;99.90
11615;DHT22;5863;52.832;4.758;2023-03-12T02:43:56;3.50;99.90
11615;DHT22;5863;52.832;4.758;2023-03-12T02:46:24;3.40;99.90
11615;DHT22;5863;52.832;4.758;2023-03-12T02:48:51;3.40;99.90
11615;DHT22;5863;52.832;4.758;2023-03-12T02:51:19;3.40;99.90
11615;DHT22;5863;52.832;4.758;2023-03-12T02:53:45;3.50;99.90
11615;DHT22;5863;52.832;4.758;2023-03-12T02:56:14;3.50;99.90
11615;DHT22;5863;52.832;4.758;2023-03-12T02:58:41;3.50;99.90
11615;DHT22;5863;52.832;4.758;2023-03-12T03:01:10;3.60;99.90
11615;DHT22;5863;52.832;4.758;2023-03-12T03:03:40;3.60;99.90
11615;DHT22;5863;52.832;4.758;2023-03-12T03:06:06;3.60;99.90
11615;DHT22;5863;52.832;4.758;2023-03-12T03:08:33;3.70;99.90
11615;DHT22;5863;52.832;4.758;2023-03-12T03:11:01;3.70;99.90
11615;DHT22;5863;52.832;4.758;2023-03-12T03:13:29;3.80;99.90
11615;DHT22;5863;52.832;4.758;2023-03-12T03:15:56;3.80;99.90
11615;DHT22;5863;52.832;4.758;2023-03-12T03:18:25;3.90;99.90
11615;DHT22;5863;52.832;4.758;2023-03-12T03:20:56;3.80;99.90
11615;DHT22;5863;52.832;4.758;2023-03-12T03:23:23;3.70;99.90
11615;DHT22;5863;52.832;4.758;2023-03-12T03:25:50;3.80;99.90
11615;DHT22;5863;52.832;4.758;2023-03-12T03:28:17;3.80;99.90
11615;DHT22;5863;52.832;4.758;2023-03-12T03:30:44;3.70;99.90
11615;DHT22;5863;52.832;4.758;2023-03-12T03:33:11;3.70;99.90
11615;DHT22;5863;52.832;4.758;2023-03-12T03:35:39;3.70;99.90
11615;DHT22;5863;52.832;4.758;2023-03-12T03:38:06;3.80;99.90
11615;DHT22;5863;52.832;4.758;2023-03-12T03:40:33;3.80;99.90
11615;DHT22;5863;52.832;4.758;2023-03-12T03:42:59;3.80;99.90
11615;DHT22;5863;52.832;4.758;2023-03-12T03:45:26;3.90;99.90
11615;DHT22;5863;52.832;4.758;2023-03-12T03:47:53;3.90;99.90
11615;DHT22;5863;52.832;4.758;2023-03-12T03:50:20;3.90;99.90
11615;DHT22;5863;52.832;4.758;2023-03-12T03:52:48;4.00;99.90
11615;DHT22;5863;52.832;4.758;2023-03-12T03:55:15;4.00;99.90
11615;DHT22;5863;52.832;4.758;2023-03-12T03:57:41;4.00;99.90
11615;DHT22;5863;52.832;4.758;2023-03-12T04:00:09;4.00;99.90
11615;DHT22;5863;52.832;4.758;2023-03-12T04:02:37;4.00;99.90
11615;DHT22;5863;52.832;4.758;2023-03-12T04:05:05;4.00;99.90
11615;DHT22;5863;52.832;4.758;2023-03-12T04:07:32;4.10;99.90
11615;DHT22;5863;52.832;4.758;2023-03-12T04:10:08;4.10;99.90
11615;DHT22;5863;52.832;4.758;2023-03-12T04:12:35;4.00;99.90
11615;DHT22;5863;52.832;4.758;2023-03-12T04:15:02;4.10;99.90
11615;DHT22;5863;52.832;4.758;2023-03-12T04:17:29;4.20;99.90
11615;DHT22;5863;52.832;4.758;2023-03-12T04:19:56;4.20;99.90
11615;DHT22;5863;52.832;4.758;2023-03-12T04:22:22;4.20;99.90
11615;DHT22;5863;52.832;4.758;2023-03-12T04:24:49;4.20;99.90
11615;DHT22;5863;52.832;4.758;2023-03-12T04:27:17;4.20;99.90
11615;DHT22;5863;52.832;4.758;2023-03-12T04:29:45;4.10;99.90
11615;DHT22;5863;52.832;4.758;2023-03-12T04:32:11;4.10;99.90
11615;DHT22;5863;52.832;4.758;2023-03-12T04:34:38;4.00;99.90
11615;DHT22;5863;52.832;4.758;2023-03-12T04:37:05;4.00;99.90
11615;DHT22;5863;52.832;4.758;2023-03-12T04:39:32;4.00;99.90
11615;DHT22;5863;52.832;4.758;2023-03-12T04:41:59;4.00;99.90
11615;DHT22;5863;52.832;4.758;2023-03-12T04:44:27;4.10;99.90
11615;DHT22;5863;52.832;4.758;2023-03-12T04:46:53;4.10;99.90
11615;DHT22;5863;52.832;4.758;2023-03-12T04:49:20;4.20;99.90
11615;DHT22;5863;52.832;4.758;2023-03-12T04:51:46;4.10;99.90
11615;DHT22;5863;52.832;4.758;2023-03-12T04:54:13;4.10;99.90
11615;DHT22;5863;52.832;4.758;2023-03-12T04:56:40;4.10;99.90
11615;DHT22;5863;52.832;4.758;2023-03-12T04:59:07;4.10;99.90
11615;DHT22;5863;52.832;4.758;2023-03-12T05:01:36;4.10;99.90
11615;DHT22;5863;52.832;4.758;2023-03-12T05:04:03;4.20;99.90
11615;DHT22;5863;52.832;4.758;2023-03-12T05:06:31;4.20;99.90
11615;DHT22;5863;52.832;4.758;2023-03-12T05:08:58;4.10;99.90
11615;DHT22;5863;52.832;4.758;2023-03-12T05:11:25;4.20;99.90
11615;DHT22;5863;52.832;4.758;2023-03-12T05:13:51;4.20;99.90
11615;DHT22;5863;52.832;4.758;2023-03-12T05:16:18;4.20;99.90
11615;DHT22;5863;52.832;4.758;2023-03-12T05:18:46;4.20;99.90
11615;DHT22;5863;52.832;4.758;2023-03-12T05:21:15;4.10;99.90
11615;DHT22;5863;52.832;4.758;2023-03-12T05:23:42;4.20;99.90
11615;DHT22;5863;52.832;4.758;2023-03-12T05:26:16;4.20;99.90
11615;DHT22;5863;52.832;4.758;2023-03-12T05:28:43;4.30;99.90
11615;DHT22;5863;52.832;4.758;2023-03-12T05:31:11;4.30;99.90
11615;DHT22;5863;52.832;4.758;2023-03-12T05:33:38;4.20;99.90
11615;DHT22;5863;52.832;4.758;2023-03-12T05:36:06;4.30;99.90
11615;DHT22;5863;52.832;4.758;2023-03-12T05:38:33;4.30;99.90
11615;DHT22;5863;52.832;4.758;2023-03-12T05:41:00;4.40;99.90
11615;DHT22;5863;52.832;4.758;2023-03-12T05:43:27;4.40;99.90
11615;DHT22;5863;52.832;4.758;2023-03-12T05:45:57;4.40;99.90
11615;DHT22;5863;52.832;4.758;2023-03-12T05:48:24;4.40;99.90
11615;DHT22;5863;52.832;4.758;2023-03-12T05:50:51;4.40;99.90
11615;DHT22;5863;52.832;4.758;2023-03-12T05:53:19;4.50;99.90
11615;DHT22;5863;52.832;4.758;2023-03-12T05:55:46;4.50;99.90
11615;DHT22;5863;52.832;4.758;2023-03-12T05:58:12;4.50;99.90
11615;DHT22;5863;52.832;4.758;2023-03-12T06:00:40;4.50;99.90
11615;DHT22;5863;52.832;4.758;2023-03-12T06:03:07;4.40;99.90
11615;DHT22;5863;52.832;4.758;2023-03-12T06:05:35;4.40;99.90
11615;DHT22;5863;52.832;4.758;2023-03-12T06:08:02;4.40;99.90
11615;DHT22;5863;52.832;4.758;2023-03-12T06:10:31;4.50;99.90
11615;DHT22;5863;52.832;4.758;2023-03-12T06:12:59;4.40;99.90
11615;DHT22;5863;52.832;4.758;2023-03-12T06:15:25;4.40;99.90
11615;DHT22;5863;52.832;4.758;2023-03-12T06:17:52;4.40;99.90
11615;DHT22;5863;52.832;4.758;2023-03-12T06:20:19;4.40;99.90
11615;DHT22;5863;52.832;4.758;2023-03-12T06:22:46;4.40;99.90
11615;DHT22;5863;52.832;4.758;2023-03-12T06:25:12;4.40;99.90
11615;DHT22;5863;52.832;4.758;2023-03-12T06:27:40;4.40;99.90
11615;DHT22;5863;52.832;4.758;2023-03-12T06:30:08;4.40;99.90
11615;DHT22;5863;52.832;4.758;2023-03-12T06:32:37;4.40;99.90
11615;DHT22;5863;52.832;4.758;2023-03-12T06:35:04;4.40;99.90
11615;DHT22;5863;52.832;4.758;2023-03-12T06:37:31;4.40;99.90
11615;DHT22;5863;52.832;4.758;2023-03-12T06:39:58;4.40;99.90
11615;DHT22;5863;52.832;4.758;2023-03-12T06:42:24;4.40;99.90
11615;DHT22;5863;52.832;4.758;2023-03-12T06:44:53;4.30;99.90
11615;DHT22;5863;52.832;4.758;2023-03-12T06:47:20;4.40;99.90
11615;DHT22;5863;52.832;4.758;2023-03-12T06:49:46;4.40;99.90
11615;DHT22;5863;52.832;4.758;2023-03-12T06:52:14;4.40;99.90
11615;DHT22;5863;52.832;4.758;2023-03-12T06:54:41;4.40;99.90
11615;DHT22;5863;52.832;4.758;2023-03-12T06:57:08;4.40;99.90
11615;DHT22;5863;52.832;4.758;2023-03-12T06:59:34;4.40;99.90
11615;DHT22;5863;52.832;4.758;2023-03-12T07:02:02;4.40;99.90
11615;DHT22;5863;52.832;4.758;2023-03-12T07:04:30;4.40;99.90
11615;DHT22;5863;52.832;4.758;2023-03-12T07:06:56;4.40;99.90
11615;DHT22;5863;52.832;4.758;2023-03-12T07:09:23;4.40;99.90
11615;DHT22;5863;52.832;4.758;2023-03-12T07:11:50;4.50;99.90
11615;DHT22;5863;52.832;4.758;2023-03-12T07:14:16;4.50;99.90
11615;DHT22;5863;52.832;4.758;2023-03-12T07:16:44;4.50;99.90
11615;DHT22;5863;52.832;4.758;2023-03-12T07:19:12;4.50;99.90
11615;DHT22;5863;52.832;4.758;2023-03-12T07:21:39;4.50;99.90
11615;DHT22;5863;52.832;4.758;2023-03-12T07:24:06;4.50;99.90
11615;DHT22;5863;52.832;4.758;2023-03-12T07:26:34;4.50;99.90
11615;DHT22;5863;52.832;4.758;2023-03-12T07:29:00;4.50;99.90
11615;DHT22;5863;52.832;4.758;2023-03-12T07:31:27;4.50;99.90
11615;DHT22;5863;52.832;4.758;2023-03-12T07:33:55;4.50;99.90
11615;DHT22;5863;52.832;4.758;2023-03-12T07:36:23;4.50;99.90
11615;DHT22;5863;52.832;4.758;2023-03-12T07:38:51;4.50;99.90
11615;DHT22;5863;52.832;4.758;2023-03-12T07:41:20;4.40;99.90
11615;DHT22;5863;52.832;4.758;2023-03-12T07:43:46;4.40;99.90
11615;DHT22;5863;52.832;4.758;2023-03-12T07:46:13;4.50;99.90
11615;DHT22;5863;52.832;4.758;2023-03-12T07:48:41;4.50;99.90
11615;DHT22;5863;52.832;4.758;2023-03-12T07:51:08;4.60;99.90
11615;DHT22;5863;52.832;4.758;2023-03-12T07:53:36;4.60;99.90
11615;DHT22;5863;52.832;4.758;2023-03-12T07:56:03;4.60;99.90
11615;DHT22;5863;52.832;4.758;2023-03-12T07:58:30;4.70;99.90
11615;DHT22;5863;52.832;4.758;2023-03-12T08:01:00;4.70;99.90
11615;DHT22;5863;52.832;4.758;2023-03-12T08:03:29;4.70;99.90
11615;DHT22;5863;52.832;4.758;2023-03-12T08:05:57;4.80;99.90
11615;DHT22;5863;52.832;4.758;2023-03-12T08:08:24;4.80;99.90
11615;DHT22;5863;52.832;4.758;2023-03-12T08:10:52;4.80;99.90
11615;DHT22;5863;52.832;4.758;2023-03-12T08:13:20;4.80;99.90
11615;DHT22;5863;52.832;4.758;2023-03-12T08:15:48;4.80;99.90
11615;DHT22;5863;52.832;4.758;2023-03-12T08:18:16;4.70;99.90
11615;DHT22;5863;52.832;4.758;2023-03-12T08:20:43;4.80;99.90
11615;DHT22;5863;52.832;4.758;2023-03-12T08:23:10;4.80;99.90
11615;DHT22;5863;52.832;4.758;2023-03-12T08:25:38;4.80;99.90
11615;DHT22;5863;52.832;4.758;2023-03-12T08:28:06;4.80;99.90
11615;DHT22;5863;52.832;4.758;2023-03-12T08:30:34;4.90;99.90
11615;DHT22;5863;52.832;4.758;2023-03-12T08:33:00;4.80;99.90
11615;DHT22;5863;52.832;4.758;2023-03-12T08:35:27;4.90;99.90
11615;DHT22;5863;52.832;4.758;2023-03-12T08:37:54;4.90;99.90
11615;DHT22;5863;52.832;4.758;2023-03-12T08:40:22;4.90;99.90
11615;DHT22;5863;52.832;4.758;2023-03-12T08:42:48;5.00;99.90
11615;DHT22;5863;52.832;4.758;2023-03-12T08:45:17;5.10;99.90
11615;DHT22;5863;52.832;4.758;2023-03-12T08:47:43;5.00;99.90
11615;DHT22;5863;52.832;4.758;2023-03-12T08:50:12;5.00;99.90
11615;DHT22;5863;52.832;4.758;2023-03-12T08:52:39;5.10;99.90
11615;DHT22;5863;52.832;4.758;2023-03-12T08:55:07;5.10;99.90
11615;DHT22;5863;52.832;4.758;2023-03-12T08:57:34;5.20;99.90
11615;DHT22;5863;52.832;4.758;2023-03-12T09:00:02;5.20;99.90
11615;DHT22;5863;52.832;4.758;2023-03-12T09:02:31;5.30;99.90
11615;DHT22;5863;52.832;4.758;2023-03-12T09:04:58;5.40;99.90
11615;DHT22;5863;52.832;4.758;2023-03-12T09:07:24;5.50;99.90
11615;DHT22;5863;52.832;4.758;2023-03-12T09:09:53;5.60;99.90
11615;DHT22;5863;52.832;4.758;2023-03-12T09:12:20;5.70;99.90
11615;DHT22;5863;52.832;4.758;2023-03-12T09:14:46;5.80;99.90
11615;DHT22;5863;52.832;4.758;2023-03-12T09:17:13;5.90;99.90
11615;DHT22;5863;52.832;4.758;2023-03-12T09:19:41;6.00;99.90
11615;DHT22;5863;52.832;4.758;2023-03-12T09:22:08;6.10;99.90
11615;DHT22;5863;52.832;4.758;2023-03-12T09:24:35;6.20;99.90
11615;DHT22;5863;52.832;4.758;2023-03-12T09:27:02;6.30;99.90
11615;DHT22;5863;52.832;4.758;2023-03-12T09:29:29;6.50;99.90
11615;DHT22;5863;52.832;4.758;2023-03-12T09:31:56;6.60;99.90
11615;DHT22;5863;52.832;4.758;2023-03-12T09:34:24;6.70;99.90
11615;DHT22;5863;52.832;4.758;2023-03-12T09:36:53;6.80;99.90
11615;DHT22;5863;52.832;4.758;2023-03-12T09:39:20;6.90;99.90
11615;DHT22;5863;52.832;4.758;2023-03-12T09:41:47;7.00;99.90
11615;DHT22;5863;52.832;4.758;2023-03-12T09:44:29;7.20;99.90
11615;DHT22;5863;52.832;4.758;2023-03-12T09:47:01;7.30;99.90
11615;DHT22;5863;52.832;4.758;2023-03-12T09:49:31;7.40;99.90
11615;DHT22;5863;52.832;4.758;2023-03-12T09:52:04;7.50;99.90
11615;DHT22;5863;52.832;4.758;2023-03-12T09:54:42;7.60;99.90
11615;DHT22;5863;52.832;4.758;2023-03-12T09:57:11;7.70;99.90
11615;DHT22;5863;52.832;4.758;2023-03-12T09:59:40;7.70;99.90
11615;DHT22;5863;52.832;4.758;2023-03-12T10:05:05;7.80;99.90
11615;DHT22;5863;52.832;4.758;2023-03-12T10:07:36;7.90;99.90
11615;DHT22;5863;52.832;4.758;2023-03-12T10:10:16;7.90;99.90
11615;DHT22;5863;52.832;4.758;2023-03-12T10:13:00;8.00;99.90
11615;DHT22;5863;52.832;4.758;2023-03-12T10:15:38;8.10;99.90
11615;DHT22;5863;52.832;4.758;2023-03-12T10:18:15;8.20;99.90
11615;DHT22;5863;52.832;4.758;2023-03-12T10:20:56;8.30;99.90
11615;DHT22;5863;52.832;4.758;2023-03-12T10:23:40;8.50;99.90
11615;DHT22;5863;52.832;4.758;2023-03-12T10:26:13;8.60;99.90
11615;DHT22;5863;52.832;4.758;2023-03-12T10:28:43;8.80;99.90
11615;DHT22;5863;52.832;4.758;2023-03-12T10:31:15;8.80;99.90
11615;DHT22;5863;52.832;4.758;2023-03-12T10:33:47;8.80;99.90
11615;DHT22;5863;52.832;4.758;2023-03-12T10:36:17;8.90;99.90
11615;DHT22;5863;52.832;4.758;2023-03-12T10:38:46;9.00;99.90
11615;DHT22;5863;52.832;4.758;2023-03-12T10:41:15;9.10;99.90
11615;DHT22;5863;52.832;4.758;2023-03-12T10:43:43;9.20;99.90
11615;DHT22;5863;52.832;4.758;2023-03-12T10:46:34;9.40;99.90
11615;DHT22;5863;52.832;4.758;2023-03-12T10:49:23;9.50;99.90
11615;DHT22;5863;52.832;4.758;2023-03-12T10:51:54;9.60;99.90
11615;DHT22;5863;52.832;4.758;2023-03-12T10:54:28;9.60;99.90
11615;DHT22;5863;52.832;4.758;2023-03-12T10:56:55;9.60;99.90
11615;DHT22;5863;52.832;4.758;2023-03-12T10:59:26;9.70;99.90
11615;DHT22;5863;52.832;4.758;2023-03-12T11:01:53;9.90;99.90
11615;DHT22;5863;52.832;4.758;2023-03-12T11:04:23;10.10;99.90
11615;DHT22;5863;52.832;4.758;2023-03-12T11:07:04;10.20;99.90
11615;DHT22;5863;52.832;4.758;2023-03-12T11:09:32;10.20;99.90
11615;DHT22;5863;52.832;4.758;2023-03-12T11:11:59;10.30;99.90
11615;DHT22;5863;52.832;4.758;2023-03-12T11:14:28;10.40;99.90
11615;DHT22;5863;52.832;4.758;2023-03-12T11:16:55;10.40;99.90
11615;DHT22;5863;52.832;4.758;2023-03-12T11:19:27;10.40;99.90
11615;DHT22;5863;52.832;4.758;2023-03-12T11:21:57;10.40;99.90
11615;DHT22;5863;52.832;4.758;2023-03-12T11:24:24;10.30;99.90
11615;DHT22;5863;52.832;4.758;2023-03-12T11:26:57;10.30;99.90
11615;DHT22;5863;52.832;4.758;2023-03-12T11:29:27;10.30;99.90
11615;DHT22;5863;52.832;4.758;2023-03-12T11:32:01;10.30;99.90
11615;DHT22;5863;52.832;4.758;2023-03-12T11:34:30;10.40;99.90
11615;DHT22;5863;52.832;4.758;2023-03-12T11:37:05;10.40;99.90
11615;DHT22;5863;52.832;4.758;2023-03-12T11:39:38;10.40;99.90
11615;DHT22;5863;52.832;4.758;2023-03-12T11:42:19;10.50;99.90
11615;DHT22;5863;52.832;4.758;2023-03-12T11:44:54;10.60;99.90
11615;DHT22;5863;52.832;4.758;2023-03-12T11:47:38;10.70;99.90
11615;DHT22;5863;52.832;4.758;2023-03-12T11:50:24;10.70;99.90
11615;DHT22;5863;52.832;4.758;2023-03-12T11:53:01;10.80;99.90
11615;DHT22;5863;52.832;4.758;2023-03-12T11:55:48;10.90;99.90
11615;DHT22;5863;52.832;4.758;2023-03-12T11:58:40;10.80;99.90
11615;DHT22;5863;52.832;4.758;2023-03-12T12:01:18;10.70;99.90
11615;DHT22;5863;52.832;4.758;2023-03-12T12:04:19;10.70;99.90
11615;DHT22;5863;52.832;4.758;2023-03-12T12:06:59;10.80;99.90
11615;DHT22;5863;52.832;4.758;2023-03-12T12:09:41;10.80;99.90
11615;DHT22;5863;52.832;4.758;2023-03-12T12:12:33;10.80;99.90
11615;DHT22;5863;52.832;4.758;2023-03-12T12:15:13;10.80;99.90
11615;DHT22;5863;52.832;4.758;2023-03-12T12:17:55;10.80;99.90
11615;DHT22;5863;52.832;4.758;2023-03-12T12:20:31;10.80;99.90
11615;DHT22;5863;52.832;4.758;2023-03-12T12:23:09;10.80;99.90
11615;DHT22;5863;52.832;4.758;2023-03-12T12:25:55;10.80;99.90
11615;DHT22;5863;52.832;4.758;2023-03-12T12:28:52;10.80;99.90
11615;DHT22;5863;52.832;4.758;2023-03-12T12:31:28;10.70;99.90
11615;DHT22;5863;52.832;4.758;2023-03-12T12:34:10;10.70;99.90
11615;DHT22;5863;52.832;4.758;2023-03-12T12:36:44;10.70;99.90
11615;DHT22;5863;52.832;4.758;2023-03-12T12:39:14;10.80;99.90
11615;DHT22;5863;52.832;4.758;2023-03-12T12:41:46;10.80;99.90
11615;DHT22;5863;52.832;4.758;2023-03-12T12:44:25;10.90;99.90
11615;DHT22;5863;52.832;4.758;2023-03-12T12:46:58;10.90;99.90
11615;DHT22;5863;52.832;4.758;2023-03-12T12:49:31;11.00;99.90
11615;DHT22;5863;52.832;4.758;2023-03-12T12:52:03;11.10;99.90
11615;DHT22;5863;52.832;4.758;2023-03-12T12:54:35;11.20;99.90
11615;DHT22;5863;52.832;4.758;2023-03-12T12:57:08;11.30;99.90
11615;DHT22;5863;52.832;4.758;2023-03-12T12:59:39;11.30;99.90
11615;DHT22;5863;52.832;4.758;2023-03-12T13:02:18;11.20;99.90
11615;DHT22;5863;52.832;4.758;2023-03-12T13:04:47;11.20;99.90
11615;DHT22;5863;52.832;4.758;2023-03-12T13:07:31;11.10;99.90
11615;DHT22;5863;52.832;4.758;2023-03-12T13:10:05;11.10;99.90
11615;DHT22;5863;52.832;4.758;2023-03-12T13:12:34;11.00;99.90
11615;DHT22;5863;52.832;4.758;2023-03-12T13:15:36;11.00;99.90
11615;DHT22;5863;52.832;4.758;2023-03-12T13:18:08;10.90;99.90
11615;DHT22;5863;52.832;4.758;2023-03-12T13:20:58;10.80;99.90
11615;DHT22;5863;52.832;4.758;2023-03-12T13:23:31;10.70;99.90
11615;DHT22;5863;52.832;4.758;2023-03-12T13:26:07;10.70;99.90
11615;DHT22;5863;52.832;4.758;2023-03-12T13:28:57;10.60;99.90
11615;DHT22;5863;52.832;4.758;2023-03-12T13:31:36;10.60;99.90
11615;DHT22;5863;52.832;4.758;2023-03-12T13:37:29;10.50;99.90
11615;DHT22;5863;52.832;4.758;2023-03-12T13:39:59;10.60;99.90
11615;DHT22;5863;52.832;4.758;2023-03-12T13:42:38;10.60;99.90
11615;DHT22;5863;52.832;4.758;2023-03-12T13:45:26;10.60;99.90
11615;DHT22;5863;52.832;4.758;2023-03-12T13:47:58;10.70;99.90
11615;DHT22;5863;52.832;4.758;2023-03-12T13:50:26;10.70;99.90
11615;DHT22;5863;52.832;4.758;2023-03-12T13:53:02;10.70;99.90
11615;DHT22;5863;52.832;4.758;2023-03-12T13:55:31;10.70;99.90
11615;DHT22;5863;52.832;4.758;2023-03-12T13:58:05;10.70;99.90
11615;DHT22;5863;52.832;4.758;2023-03-12T14:00:37;10.80;99.90
11615;DHT22;5863;52.832;4.758;2023-03-12T14:03:12;10.80;99.90
11615;DHT22;5863;52.832;4.758;2023-03-12T14:05:45;10.90;99.90
11615;DHT22;5863;52.832;4.758;2023-03-12T14:08:23;10.90;99.90
11615;DHT22;5863;52.832;4.758;2023-03-12T14:11:16;11.00;99.90
11615;DHT22;5863;52.832;4.758;2023-03-12T14:14:03;11.00;99.90
11615;DHT22;5863;52.832;4.758;2023-03-12T14:16:39;11.00;99.90
11615;DHT22;5863;52.832;4.758;2023-03-12T14:19:11;11.10;99.90
11615;DHT22;5863;52.832;4.758;2023-03-12T14:21:41;11.10;99.90
11615;DHT22;5863;52.832;4.758;2023-03-12T14:24:23;11.10;99.90
11615;DHT22;5863;52.832;4.758;2023-03-12T14:26:51;11.10;99.90
11615;DHT22;5863;52.832;4.758;2023-03-12T14:29:20;11.10;99.90
11615;DHT22;5863;52.832;4.758;2023-03-12T14:31:51;11.00;99.90
11615;DHT22;5863;52.832;4.758;2023-03-12T14:34:24;10.90;99.90
11615;DHT22;5863;52.832;4.758;2023-03-12T14:36:57;10.80;99.90
11615;DHT22;5863;52.832;4.758;2023-03-12T14:39:29;10.70;99.90
11615;DHT22;5863;52.832;4.758;2023-03-12T14:41:59;10.70;99.90
11615;DHT22;5863;52.832;4.758;2023-03-12T14:44:32;10.60;99.90
11615;DHT22;5863;52.832;4.758;2023-03-12T14:47:02;10.50;99.90
11615;DHT22;5863;52.832;4.758;2023-03-12T14:49:38;10.50;99.90
11615;DHT22;5863;52.832;4.758;2023-03-12T14:52:06;10.50;99.90
11615;DHT22;5863;52.832;4.758;2023-03-12T14:54:33;10.50;99.90
11615;DHT22;5863;52.832;4.758;2023-03-12T14:56:59;10.40;99.90
11615;DHT22;5863;52.832;4.758;2023-03-12T14:59:28;10.40;99.90
11615;DHT22;5863;52.832;4.758;2023-03-12T15:02:00;10.40;99.90
11615;DHT22;5863;52.832;4.758;2023-03-12T15:04:30;10.40;99.90
11615;DHT22;5863;52.832;4.758;2023-03-12T15:07:01;10.30;99.90
11615;DHT22;5863;52.832;4.758;2023-03-12T15:09:31;10.40;99.90
11615;DHT22;5863;52.832;4.758;2023-03-12T15:12:01;10.40;99.90
11615;DHT22;5863;52.832;4.758;2023-03-12T15:14:31;10.40;99.90
11615;DHT22;5863;52.832;4.758;2023-03-12T15:16:59;10.40;99.90
11615;DHT22;5863;52.832;4.758;2023-03-12T15:19:31;10.40;99.90
11615;DHT22;5863;52.832;4.758;2023-03-12T15:22:00;10.40;99.90
11615;DHT22;5863;52.832;4.758;2023-03-12T15:24:28;10.40;99.90
11615;DHT22;5863;52.832;4.758;2023-03-12T15:26:55;10.40;99.90
11615;DHT22;5863;52.832;4.758;2023-03-12T15:29:24;10.40;99.90
11615;DHT22;5863;52.832;4.758;2023-03-12T15:31:56;10.40;99.90
11615;DHT22;5863;52.832;4.758;2023-03-12T15:34:31;10.40;99.90
11615;DHT22;5863;52.832;4.758;2023-03-12T15:37:02;10.40;99.90
11615;DHT22;5863;52.832;4.758;2023-03-12T15:39:30;10.40;99.90
11615;DHT22;5863;52.832;4.758;2023-03-12T15:42:06;10.40;99.90
11615;DHT22;5863;52.832;4.758;2023-03-12T15:44:42;10.40;99.90
11615;DHT22;5863;52.832;4.758;2023-03-12T15:47:12;10.30;99.90
11615;DHT22;5863;52.832;4.758;2023-03-12T15:49:40;10.30;99.90
11615;DHT22;5863;52.832;4.758;2023-03-12T15:52:29;10.30;99.90
11615;DHT22;5863;52.832;4.758;2023-03-12T15:55:19;10.20;99.90
11615;DHT22;5863;52.832;4.758;2023-03-12T15:57:48;10.20;99.90
11615;DHT22;5863;52.832;4.758;2023-03-12T16:00:20;10.10;99.90
11615;DHT22;5863;52.832;4.758;2023-03-12T16:02:50;10.10;99.90
11615;DHT22;5863;52.832;4.758;2023-03-12T16:05:18;10.00;99.90
11615;DHT22;5863;52.832;4.758;2023-03-12T16:07:46;10.00;99.90
11615;DHT22;5863;52.832;4.758;2023-03-12T16:10:14;10.00;99.90
11615;DHT22;5863;52.832;4.758;2023-03-12T16:12:42;10.00;99.90
11615;DHT22;5863;52.832;4.758;2023-03-12T16:15:13;9.90;99.90
11615;DHT22;5863;52.832;4.758;2023-03-12T16:17:40;9.80;99.90
11615;DHT22;5863;52.832;4.758;2023-03-12T16:20:13;9.80;99.90
11615;DHT22;5863;52.832;4.758;2023-03-12T16:22:43;9.80;99.90